Latest Coastal Weather Observations for Tasman Island

IDT60701

Issued at 6:51 pm EST Monday 27 April 2015 (issued every 10 minutes, with the page automatically refreshed every 10 minutes)

About coastal observations | Map of coastal stations | Coastal observations for TAS | Marine services | Other Formats
Station Details ID: 094155 Name: TASMAN ISLAND Lat: -43.24 Lon: 148.00 Height: 240.0 m
Data from the previous 72 hours. | See also: Recent months at Tasman Island
Date/Time
EST
Temp

°C
Wind Pressure Rain
since 9am
mm
Weather Cloud Vis
km
Sea
Height
m
Swell
Dir
 
Speed
knots
Gust
knots
hPa Trend Height
m
Period
s
Dir
27/06:30pm 10.0 SW 12 33 1020.1 - 2.0 - - - - - - -
27/06:00pm 10.1 SW 19 33 1019.8 - 2.0 - - - - - - -
27/05:39pm 9.6 SW 15 32 1019.5 - 2.0 - - - - - - -
27/05:30pm 9.6 SW 13 29 1019.3 - 2.0 - - - - - - -
27/05:03pm 9.8 SW 15 28 1018.8 - 2.0 - - - - - - -
27/05:00pm 9.9 SW 14 28 1018.9 - 2.0 - - - - - - -
27/04:30pm 9.6 SW 21 36 1018.8 - 2.0 - - - - - - -
27/04:13pm 9.3 SW 15 28 1018.6 - 2.0 - - - - - - -
27/04:00pm 9.6 SW 13 25 1018.5 - 2.0 - - - - - - -
27/03:39pm 9.7 SSW 15 29 1018.6 - 2.0 - - - - - - -
27/03:30pm 9.3 SW 11 27 1018.4 - 2.0 - - - - - - -
27/03:00pm 9.4 SW 22 33 1018.2 - 1.8 Recent precip. - - - - - -
27/02:36pm 9.2 SW 15 31 1017.8 - 1.8 - - - - - - -
27/02:30pm 9.7 SW 13 28 1017.8 - 1.6 - - - - - - -
27/02:00pm 9.1 SW 12 24 1017.5 - 1.6 - - - - - - -
27/01:30pm 9.7 WSW 12 27 1017.4 - 1.2 - - - - - - -
27/01:00pm 9.2 WSW 11 33 1017.4 - 0.4 - - - - - - -
27/12:30pm 9.7 WSW 12 28 1017.5 - 0.4 - - - - - - -
27/12:00pm 9.6 WSW 11 25 1017.6 - 0.4 Recent precip. - - - - - -
27/11:30am 8.9 WSW 12 27 1017.7 - 0.4 - - - - - - -
27/11:05am 8.3 SW 15 31 1017.4 - 0.4 - - - - - - -
27/11:00am 8.4 SW 12 25 1017.5 - 0.2 - - - - - - -
27/10:44am 9.1 SW 15 30 1017.3 - 0.2 - - - - - - -
27/10:30am 8.8 SW 14 29 1017.2 - 0.2 - - - - - - -
27/10:21am 8.5 SW 15 28 1017.1 - 0.2 - - - - - - -
27/10:00am 8.5 SW 12 29 1016.9 - 0.2 - - - - - - -
27/09:30am 8.5 WSW 11 29 1016.5 - 0.0 - - - - - - -
27/09:11am 8.7 SW 18 33 1016.4 - 0.0 - - - - - - -
27/09:00am 8.7 SW 18 34 1016.2 - 4.0 - - - - - - -
27/08:30am 8.9 SW 15 35 1016.0 - 4.0 - - - - - - -
27/08:00am 8.8 SW 18 37 1015.5 - 4.0 - - - - - - -
27/07:36am 8.8 SW 15 34 1015.2 - 4.0 - - - - - - -
27/07:30am 8.0 SW 14 32 1015.1 - 4.0 - - - - - - -
27/07:15am 8.9 SW 12 25 1015.1 - 4.0 - - - - - - -
27/07:00am 8.8 SW 22 37 1014.8 - 4.0 - - - - - - -
27/06:30am 8.4 SW 22 37 1014.5 - 4.0 - - - - - - -
27/06:00am 7.9 SW 17 30 1014.4 - 3.8 Recent precip. - - - - - -
27/05:38am 8.4 SW 15 36 1014.3 - 3.4 - - - - - - -
27/05:30am 8.8 SW 13 36 1014.0 - 3.4 - - - - - - -
27/05:00am 8.8 SW 16 36 1013.8 - 3.4 - - - - - - -
27/04:30am 7.6 SW 20 46 1013.5 - 3.2 - - - - - - -
27/04:26am 8.1 SW 18 46 1013.4 - 3.2 - - - - - - -
27/04:00am 8.7 SW 20 36 1013.2 - 3.0 - - - - - - -
27/03:38am 8.2 SW 23 43 1013.0 - 2.8 - - - - - - -
27/03:30am 9.0 SW 18 38 1013.1 - 2.8 - - - - - - -
27/03:00am 8.6 SW 26 39 1012.8 - 2.8 Recent precip. - - - - - -
27/02:30am 8.7 SW 15 36 1013.3 - 2.6 - - - - - - -
27/02:00am 7.8 SW 18 37 1013.1 - 2.6 - - - - - - -
27/01:30am 8.8 SW 21 38 1012.9 - 2.6 - - - - - - -
27/01:00am 8.4 SW 16 30 1012.9 - 2.6 - - - - - - -
27/12:30am 8.3 SW 22 40 1012.9 - 2.4 - - - - - - -
27/12:00am 8.5 SW 17 37 1012.7 - 2.4 Recent precip. - - - - - -
 
Date/Time
EST
Temp

°C
Wind Pressure Rain
since 9am
mm
Weather Cloud Vis
km
Sea
Height
m
Swell
Dir
 
Speed
knots
Gust
knots
hPa Trend Height
m
Period
s
Dir
26/11:53pm 8.3 WSW 14 37 1012.7 - 2.4 - - - - - - -
26/11:50pm 8.2 WSW 13 32 1012.8 - 2.4 - - - - - - -
26/11:30pm 8.4 SW 21 38 1012.8 - 2.4 - - - - - - -
26/11:00pm 8.2 SW 16 35 1012.9 - 2.2 - - - - - - -
26/10:59pm 8.4 SW 15 35 1012.8 - 2.2 - - - - - - -
26/10:30pm 8.6 SW 13 27 1012.7 - 2.2 - - - - - - -
26/10:00pm 8.7 SW 15 34 1012.8 - 2.2 - - - - - - -
26/09:30pm 8.7 SW 17 35 1012.8 - 2.2 - - - - - - -
26/09:00pm 7.8 SW 17 35 1012.6 - 2.0 Recent precip. - - - - - -
26/08:30pm 8.0 SW 15 46 1012.4 - 1.8 - - - - - - -
26/08:00pm 8.2 SW 21 36 1012.2 - 1.8 - - - - - - -
26/07:43pm 8.5 SW 15 33 1012.1 - 1.6 - - - - - - -
26/07:30pm 8.2 SW 17 35 1012.5 - 1.4 - - - - - - -
26/07:00pm 8.4 SW 22 42 1011.7 - 1.2 - - - - - - -
26/06:56pm 8.5 SW 18 42 1011.7 - 1.2 - - - - - - -
26/06:30pm 8.8 SW 15 30 1011.6 - 1.2 - - - - - - -
26/06:07pm 9.1 SW 12 35 1011.2 - 1.2 - - - - - - -
26/06:00pm 8.7 WSW 9 27 1011.3 - 1.2 Recent precip. - - - - - -
26/05:30pm 8.8 WSW 13 29 1011.0 - 1.0 - - - - - - -
26/05:28pm 8.8 WSW 13 29 1011.0 - 1.0 - - - - - - -
26/05:00pm 8.9 SW 9 22 1010.8 - 0.6 - - - - - - -
26/04:36pm 8.5 SW 13 28 1010.6 - 0.6 - - - - - - -
26/04:30pm 9.4 WSW 13 28 1010.5 - 0.6 - - - - - - -
26/04:00pm 9.9 SSW 7 18 1010.3 - 0.4 - - - - - - -
26/03:30pm 10.6 ENE 5 14 1010.1 - 0.0 - - - - - - -
26/03:00pm 10.7 WNW 7 19 1010.0 - 0.0 - - - - - - -
26/02:30pm 10.5 NW 5 16 1010.2 - 0.0 - - - - - - -
26/02:00pm 11.4 ENE 4 12 1010.1 - 0.0 - - - - - - -
26/01:30pm 10.3 NNW 4 15 1010.3 - 0.0 - - - - - - -
26/01:00pm 10.4 WNW 6 19 1010.4 - 0.0 - - - - - - -
26/12:30pm 10.3 N 4 12 1010.6 - 0.0 - - - - - - -
26/12:00pm 10.3 WNW 4 13 1010.9 - 0.0 - - - - - - -
26/11:30am 10.0 NW 5 13 1011.4 - 0.0 - - - - - - -
26/11:00am 9.4 NW 4 13 1011.6 - 0.0 - - - - - - -
26/10:30am 9.2 W 4 13 1011.8 - 0.0 - - - - - - -
26/10:00am 8.9 NW 5 16 1011.7 - 0.0 - - - - - - -
26/09:30am 8.3 W 8 20 1011.8 - 0.0 - - - - - - -
26/09:00am 8.5 W 9 25 1011.9 - 0.8 - - - - - - -
26/08:30am 8.2 WSW 6 20 1012.1 - 0.8 - - - - - - -
26/08:00am 8.4 WSW 11 26 1012.0 - 0.8 - - - - - - -
26/07:30am 8.2 NW 6 19 1011.8 - 0.8 - - - - - - -
26/07:00am 8.0 SSE 5 17 1011.4 - 0.8 - - - - - - -
26/06:30am 7.6 WSW 9 20 1011.5 - 0.8 - - - - - - -
26/06:00am 7.1 SW 7 18 1011.3 - 0.8 Recent precip. - - - - - -
26/05:30am 7.9 SSW 7 17 1011.4 - 0.6 - - - - - - -
26/05:00am 7.2 SW 10 21 1011.6 - 0.4 - - - - - - -
26/04:30am 7.8 SW 8 20 1011.6 - 0.4 - - - - - - -
26/04:00am 7.6 SW 9 16 1011.7 - 0.2 - - - - - - -
26/03:30am 7.3 SSW 10 18 1011.8 - 0.2 - - - - - - -
26/03:00am 8.0 SW 7 15 1011.9 - 0.2 - - - - - - -
26/02:30am 7.8 SW 10 19 1012.0 - 0.2 - - - - - - -
26/02:00am 8.6 SW 9 18 1012.1 - 0.2 - - - - - - -
26/01:30am 8.7 SSW 9 16 1012.2 - 0.2 - - - - - - -
26/01:00am 8.8 SW 9 14 1012.4 - 0.2 - - - - - - -
26/12:30am 8.9 SSW 8 14 1012.4 - 0.2 - - - - - - -
26/12:00am 8.9 SSW 7 11 1012.4 - 0.2 - - - - - - -
 
Date/Time
EST
Temp

°C
Wind Pressure Rain
since 9am
mm
Weather Cloud Vis
km
Sea
Height
m
Swell
Dir
 
Speed
knots
Gust
knots
hPa Trend Height
m
Period
s
Dir
25/11:30pm 8.9 SSW 8 11 1012.5 - 0.2 - - - - - - -
25/11:00pm 8.9 S 7 12 1012.7 - 0.2 - - - - - - -
25/10:30pm 8.8 SSW 5 11 1012.8 - 0.2 - - - - - - -
25/10:00pm 8.9 S 7 11 1012.9 - 0.2 - - - - - - -
25/09:30pm 8.8 S 7 12 1013.0 - 0.2 - - - - - - -
25/09:00pm 8.7 S 7 12 1013.0 - 0.2 - - - - - - -
25/08:30pm 8.3 S 8 16 1012.9 - 0.2 - - - - - - -
25/08:00pm 9.2 SSW 6 13 1012.7 - 0.2 - - - - - - -
25/07:30pm 9.1 SSW 7 13 1012.7 - 0.0 - - - - - - -
25/07:00pm 9.0 SSW 10 14 1012.6 - 0.0 - - - - - - -
25/06:30pm 8.8 SSW 8 13 1012.4 - 0.0 - - - - - - -
25/06:00pm 8.3 SSW 10 13 1011.9 - 0.0 - - - - - - -
25/05:30pm 8.4 SSW 12 18 1011.5 - 0.0 - - - - - - -
25/05:00pm 8.8 SSW 10 17 1011.3 - 0.0 - - - - - - -
25/04:30pm 9.5 SSW 12 18 1011.1 - 0.0 - - - - - - -
25/04:00pm 9.5 SSW 11 17 1010.9 - 0.0 - - - - - - -
25/03:30pm 9.8 SSW 12 19 1010.6 - 0.0 - - - - - - -
25/03:00pm 10.4 SSW 13 18 1010.4 - 0.0 - - - - - - -
25/02:30pm 10.2 SSW 15 21 1010.1 - 0.0 - - - - - - -
25/02:00pm 10.6 SSW 14 19 1009.9 - 0.0 - - - - - - -
25/01:30pm 10.1 SSW 14 22 1009.7 - 0.0 - - - - - - -
25/01:00pm 11.1 SW 14 21 1010.0 - 0.0 - - - - - - -
25/12:30pm 10.5 SW 15 22 1009.9 - 0.0 - - - - - - -
25/12:00pm 11.3 SSW 12 21 1010.0 - 0.0 - - - - - - -
25/11:30am 10.6 SSW 10 17 1010.1 - 0.0 - - - - - - -
25/11:00am 10.3 SSW 11 16 1010.1 - 0.0 - - - - - - -
25/10:30am 10.1 SSW 11 17 1010.0 - 0.0 - - - - - - -
25/10:00am 9.7 SSW 13 18 1009.8 - 0.0 - - - - - - -
25/09:30am 9.6 SSW 15 21 1009.5 - 0.0 - - - - - - -
25/09:00am 9.7 SSW 14 22 1009.2 - 1.8 - - - - - - -
25/08:30am 9.8 SSW 15 22 1008.9 - 1.8 - - - - - - -
25/08:00am 9.8 SSW 17 23 1008.5 - 1.8 - - - - - - -
25/07:30am 10.0 SSW 15 22 1008.0 - 1.8 - - - - - - -
25/07:00am 10.1 SSW 12 18 1007.4 - 1.8 - - - - - - -
25/06:30am 10.0 SSW 12 19 1006.8 - 1.8 - - - - - - -
25/06:00am 10.0 SSW 15 25 1006.4 - 1.6 - - - - - - -
25/05:30am 10.5 SSW 14 24 1006.1 - 1.6 - - - - - - -
25/05:00am 10.4 SSW 13 23 1005.8 - 1.6 - - - - - - -
25/04:54am 10.5 SW 14 25 1005.8 - 1.6 - - - - - - -
25/04:49am 10.9 SSW 12 25 1005.7 - 1.6 - - - - - - -
25/04:30am 10.6 SW 7 17 1005.7 - 1.6 - - - - - - -
25/04:00am 10.7 SSW 14 24 1005.1 - 1.6 - - - - - - -
25/03:30am 10.2 SSW 14 23 1004.9 - 1.6 - - - - - - -
25/03:00am 10.5 SSW 13 20 1004.7 - 1.6 - - - - - - -
25/02:30am 10.1 SSW 15 25 1004.6 - 1.6 - - - - - - -
25/02:16am 10.8 SW 15 26 1004.6 - 1.6 - - - - - - -
25/02:00am 10.3 SW 15 24 1004.6 - 1.6 - - - - - - -
25/01:30am 10.6 SW 17 28 1004.2 - 1.6 - - - - - - -
25/01:00am 10.8 SW 16 35 1003.8 - 1.6 - - - - - - -
25/12:30am 10.8 SW 17 31 1003.8 - 1.6 - - - - - - -
25/12:22am 10.6 SW 17 32 1003.7 - 1.6 - - - - - - -
25/12:00am 11.0 SW 10 29 1003.7 - 1.6 - - - - - - -
 
Date/Time
EST
Temp

°C
Wind Pressure Rain
since 9am
mm
Weather Cloud Vis
km
Sea
Height
m
Swell
Dir
 
Speed
knots
Gust
knots
hPa Trend Height
m
Period
s
Dir
24/11:30pm 11.0 SW 12 27 1003.6 - 1.6 - - - - - - -
24/11:02pm 11.1 SSW 15 29 1003.3 - 1.6 - - - - - - -
24/11:00pm 11.2 SW 14 29 1003.4 - 1.6 - - - - - - -
24/10:30pm 10.9 SW 19 33 1003.3 - 1.6 - - - - - - -
24/10:00pm 11.1 SSW 17 33 1003.2 - 1.6 - - - - - - -
24/09:30pm 11.2 SSW 17 29 1003.0 - 1.6 - - - - - - -
24/09:12pm 11.1 SW 15 26 1003.1 - 1.6 - - - - - - -
24/09:00pm 11.2 SW 13 26 1003.2 - 1.6 - - - - - - -
24/08:30pm 11.2 SW 10 26 1003.0 - 1.6 - - - - - - -
24/08:00pm 11.2 SW 13 25 1002.9 - 1.6 - - - - - - -
24/07:30pm 11.3 SW 15 30 1002.7 - 1.6 - - - - - - -
24/07:00pm 11.4 SW 17 29 1002.7 - 1.6 - - - - - - -
24/06:56pm 11.3 SW 15 29 1002.7 - 1.6 - - - - - - -

Other Formats:

Comma delimited format used in spreadsheet applications
http://www.bom.gov.au/fwo/IDT60701/IDT60701.95986.axf

JavaScript Object Notation format (JSON) in row-major order
http://www.bom.gov.au/fwo/IDT60701/IDT60701.95986.json